Time;durP1;ratioP1;P1;durP2;ratioP2;P2;SDS_P1;SDS_P2;PMS_P1;PMS_P2;Temp;Humidity;BMP_temperature;BMP_pressure;BME280_temperature;BME280_humidity;BME280_pressure;Samples;Min_cycle;Max_cycle;Signal;HPM_P1;HPM_P2
2022/11/20 02:28:30;;;;;;;3.80;2.87;;;5.40;99.90;;;;;;859591;31;20726;-77
2022/11/20 02:30:57;;;;;;;2.70;2.47;;;5.40;99.90;;;;;;4269597;33;20337;-76
2022/11/20 02:33:32;;;;;;;3.33;2.63;;;5.30;99.90;;;;;;4270825;33;20257;-77
2022/11/20 02:35:59;;;;;;;4.50;2.80;;;5.30;99.90;;;;;;4270477;33;20297;-75
2022/11/20 02:38:27;;;;;;;2.47;2.20;;;5.30;99.90;;;;;;4271122;33;20246;-76
2022/11/20 02:40:53;;;;;;;3.87;2.77;;;5.30;99.90;;;;;;4270828;33;20318;-77
2022/11/20 02:43:24;;;;;;;4.23;3.30;;;5.30;99.90;;;;;;4272505;33;20265;-76
2022/11/20 02:45:53;;;;;;;3.93;3.20;;;5.30;99.90;;;;;;4272791;33;20254;-77
2022/11/20 02:48:20;;;;;;;8.43;3.87;;;5.30;99.90;;;;;;4272288;33;20611;-77
2022/11/20 02:50:47;;;;;;;4.53;2.73;;;5.30;99.90;;;;;;4272509;33;20340;-78
2022/11/20 02:53:14;;;;;;;5.33;4.13;;;5.30;99.90;;;;;;4272144;33;20261;-77
2022/11/20 02:55:41;;;;;;;3.20;2.90;;;5.30;99.90;;;;;;4272048;33;20265;-76
2022/11/20 02:58:08;;;;;;;3.60;3.37;;;5.30;99.90;;;;;;4271286;33;20309;-77
2022/11/20 03:00:35;;;;;;;6.13;4.00;;;5.60;99.90;;;;;;4271977;33;20313;-78
2022/11/20 03:03:03;;;;;;;3.50;3.17;;;5.30;99.90;;;;;;4271246;33;20277;-77
2022/11/20 03:05:30;;;;;;;5.07;4.23;;;5.30;99.90;;;;;;4272277;33;20737;-76
2022/11/20 03:07:57;;;;;;;3.17;2.83;;;5.30;99.90;;;;;;4272401;33;20744;-76
2022/11/20 03:10:28;;;;;;;3.13;2.87;;;5.30;99.90;;;;;;4272016;33;20286;-77
2022/11/20 03:12:56;;;;;;;4.20;2.80;;;5.30;99.90;;;;;;4270181;33;20316;-76
2022/11/20 03:15:23;;;;;;;3.10;2.90;;;5.30;99.90;;;;;;4271051;33;20305;-76
2022/11/20 03:17:50;;;;;;;3.60;3.23;;;5.30;99.90;;;;;;4270495;33;20246;-76
2022/11/20 03:20:18;;;;;;;2.93;2.63;;;5.30;99.90;;;;;;4270010;33;20357;-76
2022/11/20 03:22:45;;;;;;;3.20;3.00;;;5.30;99.90;;;;;;4270206;33;20281;-76
2022/11/20 03:25:20;;;;;;;3.60;3.27;;;5.30;99.90;;;;;;4270308;33;20615;-76
2022/11/20 03:27:47;;;;;;;5.90;2.83;;;5.40;99.90;;;;;;4274774;33;20305;-76
2022/11/20 03:30:14;;;;;;;3.40;3.10;;;5.30;99.90;;;;;;4281847;33;20645;-77
2022/11/20 03:32:41;;;;;;;4.40;2.67;;;5.30;99.90;;;;;;4286325;33;20736;-76
2022/11/20 03:35:17;;;;;;;2.90;2.50;;;5.30;99.90;;;;;;4287416;33;20257;-77
2022/11/20 03:37:46;;;;;;;3.20;2.50;;;4.70;99.90;;;;;;4285160;33;20292;-76
2022/11/20 03:40:13;;;;;;;4.50;3.30;;;5.40;99.90;;;;;;4286312;33;20630;-76
2022/11/20 03:42:46;;;;;;;3.53;2.80;;;5.30;99.90;;;;;;4286391;33;20261;-78
2022/11/20 03:45:13;;;;;;;3.77;3.03;;;5.30;99.90;;;;;;4285772;33;20253;-77
2022/11/20 03:47:44;;;;;;;3.73;3.30;;;5.30;99.90;;;;;;4286672;33;20271;-77
2022/11/20 03:50:13;;;;;;;5.87;3.37;;;5.30;99.90;;;;;;4286245;33;20305;-76
2022/11/20 03:52:40;;;;;;;3.60;3.30;;;5.30;99.90;;;;;;4286687;33;20624;-77
2022/11/20 03:55:09;;;;;;;5.90;3.97;;;5.30;99.90;;;;;;4286397;33;20363;-75
2022/11/20 03:57:36;;;;;;;4.33;3.57;;;5.30;99.90;;;;;;4286069;33;20261;-76
2022/11/20 04:00:06;;;;;;;3.63;2.80;;;5.30;99.90;;;;;;4275639;33;20280;-78
2022/11/20 04:02:33;;;;;;;4.23;3.83;;;5.30;99.90;;;;;;4272235;33;20305;-78
2022/11/20 04:05:00;;;;;;;3.30;2.90;;;5.30;99.90;;;;;;4271619;33;20254;-77
2022/11/20 04:07:27;;;;;;;3.63;3.33;;;5.30;99.90;;;;;;4271298;33;20257;-76
2022/11/20 04:09:54;;;;;;;4.90;3.67;;;5.30;99.90;;;;;;4271277;33;20270;-77
2022/11/20 04:12:22;;;;;;;3.87;3.10;;;5.20;99.90;;;;;;4271835;33;20246;-77
2022/11/20 04:14:55;;;;;;;4.57;4.17;;;5.10;99.90;;;;;;4272715;33;20249;-77
2022/11/20 04:17:22;;;;;;;4.87;3.03;;;5.20;99.90;;;;;;4285886;33;20253;-77
2022/11/20 04:19:49;;;;;;;3.07;2.77;;;5.20;99.90;;;;;;4285290;33;20253;-77
2022/11/20 04:22:16;;;;;;;3.43;3.13;;;5.20;99.90;;;;;;4283703;33;20281;-76
2022/11/20 04:24:43;;;;;;;2.90;2.70;;;5.20;99.90;;;;;;4283952;33;20254;-76
2022/11/20 04:27:11;;;;;;;3.07;2.50;;;5.20;99.90;;;;;;4284181;33;20249;-76
2022/11/20 04:29:39;;;;;;;2.83;2.63;;;5.20;99.90;;;;;;4283708;33;20302;-77
2022/11/20 04:32:06;;;;;;;3.87;2.63;;;5.30;99.90;;;;;;4283365;33;20316;-76
2022/11/20 04:34:33;;;;;;;4.73;2.83;;;5.20;99.90;;;;;;4283720;33;20249;-77
2022/11/20 04:37:01;;;;;;;3.20;2.47;;;5.20;99.90;;;;;;4283452;33;20672;-76
2022/11/20 04:39:28;;;;;;;3.83;3.50;;;5.20;99.90;;;;;;4283921;33;20646;-76
2022/11/20 04:44:39;;;;;;;3.43;3.13;;;5.30;99.90;;;;;;4282468;33;20340;-76
2022/11/20 04:47:06;;;;;;;3.80;2.73;;;5.30;99.90;;;;;;4283209;33;20245;-77
2022/11/20 04:49:33;;;;;;;4.57;3.10;;;5.30;99.90;;;;;;4282199;33;20774;-75
2022/11/20 04:52:09;;;;;;;4.93;3.57;;;5.30;99.90;;;;;;4282854;33;20340;-77
2022/11/20 04:54:36;;;;;;;4.10;3.20;;;5.30;99.90;;;;;;4283409;33;20253;-76
2022/11/20 04:57:03;;;;;;;3.50;2.90;;;5.20;99.90;;;;;;4283662;33;20279;-76
2022/11/20 04:59:29;;;;;;;4.23;2.80;;;5.30;99.90;;;;;;4284261;33;20253;-77
2022/11/20 05:01:58;;;;;;;5.13;4.40;;;5.20;99.90;;;;;;4284319;33;20297;-76
2022/11/20 05:04:31;;;;;;;4.53;3.63;;;5.20;99.90;;;;;;4283024;33;20265;-76
2022/11/20 05:06:57;;;;;;;4.67;3.23;;;5.20;99.90;;;;;;4283628;33;20267;-77
2022/11/20 05:09:24;;;;;;;3.93;3.63;;;5.20;99.90;;;;;;4284272;33;20268;-76
2022/11/20 05:11:51;;;;;;;5.70;3.40;;;5.20;99.90;;;;;;4284348;33;20277;-76
2022/11/20 05:14:18;;;;;;;4.87;3.40;;;5.20;99.90;;;;;;4284146;33;20278;-77
2022/11/20 05:16:45;;;;;;;3.00;2.70;;;5.30;99.90;;;;;;4284328;33;20284;-77
2022/11/20 05:19:19;;;;;;;4.40;3.50;;;5.30;99.90;;;;;;4284360;33;20276;-76
2022/11/20 05:21:45;;;;;;;4.43;3.70;;;5.20;99.90;;;;;;4283697;33;20324;-76
2022/11/20 05:24:12;;;;;;;3.90;3.60;;;5.20;99.90;;;;;;4284774;33;20332;-78
2022/11/20 05:26:39;;;;;;;3.87;3.57;;;5.20;99.90;;;;;;4284893;33;20292;-77
2022/11/20 05:29:06;;;;;;;3.93;3.00;;;5.20;99.90;;;;;;4285181;33;20272;-76
2022/11/20 05:31:33;;;;;;;5.20;3.40;;;5.30;99.90;;;;;;4282921;33;20296;-74
2022/11/20 05:34:00;;;;;;;10.07;3.43;;;5.20;99.90;;;;;;4280335;33;20257;-75
2022/11/20 05:36:30;;;;;;;5.00;3.20;;;5.20;99.90;;;;;;4284597;33;20307;-75
2022/11/20 05:38:57;;;;;;;3.80;3.30;;;5.20;99.90;;;;;;4283842;33;20258;-76
2022/11/20 05:41:24;;;;;;;3.73;2.90;;;5.20;99.90;;;;;;4282723;33;20662;-77
2022/11/20 05:43:52;;;;;;;4.17;2.77;;;5.20;99.90;;;;;;4284106;33;20261;-76
2022/11/20 05:46:20;;;;;;;4.07;3.67;;;5.30;99.90;;;;;;4284599;33;20277;-75
2022/11/20 05:48:54;;;;;;;4.70;3.93;;;5.20;99.90;;;;;;4284911;33;20245;-76
2022/11/20 05:51:21;;;;;;;3.57;3.27;;;5.20;99.90;;;;;;4285405;33;20913;-76
2022/11/20 05:53:49;;;;;;;3.37;3.07;;;5.20;99.90;;;;;;4284611;33;20257;-76
2022/11/20 05:56:18;;;;;;;4.70;3.30;;;5.30;99.90;;;;;;4284144;33;20271;-76
2022/11/20 05:58:45;;;;;;;3.50;2.97;;;5.30;99.90;;;;;;4284305;33;20253;-76
2022/11/20 06:01:18;;;;;;;4.00;3.60;;;5.10;99.90;;;;;;4285165;33;20267;-75
2022/11/20 06:03:47;;;;;;;3.00;2.70;;;5.20;99.90;;;;;;4284636;33;20273;-76
2022/11/20 06:06:15;;;;;;;3.73;3.37;;;5.20;99.90;;;;;;4286094;33;20240;-77
2022/11/20 06:08:42;;;;;;;3.40;2.60;;;5.20;99.90;;;;;;4286375;33;20249;-77
2022/11/20 06:11:12;;;;;;;3.60;3.13;;;5.10;99.90;;;;;;4286131;33;20798;-76
2022/11/20 06:13:40;;;;;;;2.80;2.60;;;5.10;99.90;;;;;;4285442;33;21092;-77
2022/11/20 06:16:07;;;;;;;3.30;3.00;;;5.10;99.90;;;;;;4285391;33;20284;-75
2022/11/20 06:18:34;;;;;;;3.50;3.10;;;5.10;99.90;;;;;;4280837;33;20258;-75
2022/11/20 06:21:05;;;;;;;3.07;2.77;;;5.00;99.90;;;;;;4272109;33;20325;-76
2022/11/20 06:23:33;;;;;;;2.70;2.50;;;5.00;99.90;;;;;;4272557;33;20250;-76
2022/11/20 06:26:03;;;;;;;3.33;3.03;;;5.00;99.90;;;;;;4272231;33;20695;-75
2022/11/20 06:28:35;;;;;;;3.53;3.10;;;5.00;99.90;;;;;;4277512;33;20313;-76
2022/11/20 06:31:03;;;;;;;2.97;2.67;;;4.90;99.90;;;;;;4257155;33;20246;-77
2022/11/20 06:33:30;;;;;;;2.70;2.50;;;4.90;99.90;;;;;;4257328;33;20638;-77
2022/11/20 06:35:58;;;;;;;3.60;3.30;;;4.80;99.90;;;;;;4257370;33;20254;-77
2022/11/20 06:38:25;;;;;;;3.03;2.60;;;4.80;99.90;;;;;;4257206;33;21002;-76
2022/11/20 06:40:52;;;;;;;2.77;1.87;;;4.90;99.90;;;;;;4256803;33;20311;-77
2022/11/20 06:43:21;;;;;;;2.67;2.47;;;4.90;99.90;;;;;;4255973;33;20262;-77
2022/11/20 06:45:53;;;;;;;3.60;2.43;;;4.90;99.90;;;;;;4256694;33;20286;-76
2022/11/20 06:48:19;;;;;;;6.23;2.50;;;5.00;99.90;;;;;;4256723;33;20239;-76
2022/11/20 06:50:46;;;;;;;2.20;2.00;;;5.10;99.90;;;;;;4256846;33;20267;-75
2022/11/20 06:53:13;;;;;;;2.80;2.20;;;5.00;99.90;;;;;;4256614;33;20274;-75
2022/11/20 06:55:43;;;;;;;2.50;2.30;;;5.00;99.90;;;;;;4257364;33;20316;-74
2022/11/20 06:58:18;;;;;;;2.20;2.00;;;4.90;99.90;;;;;;4256207;33;20250;-78
2022/11/20 07:00:45;;;;;;;2.77;2.50;;;4.50;99.90;;;;;;4268683;33;20264;-76
2022/11/20 07:03:14;;;;;;;2.83;2.23;;;5.10;99.90;;;;;;4269290;33;20266;-74
2022/11/20 07:05:41;;;;;;;1.93;1.70;;;5.10;99.90;;;;;;4263744;33;20326;-76
2022/11/20 07:08:08;;;;;;;2.27;2.10;;;5.20;99.90;;;;;;4264235;33;20314;-76
2022/11/20 07:10:35;;;;;;;1.80;1.60;;;5.30;99.90;;;;;;4263194;33;20254;-75
2022/11/20 07:13:06;;;;;;;2.23;1.83;;;5.30;99.90;;;;;;4270236;33;20293;-74
2022/11/20 07:15:33;;;;;;;2.23;2.03;;;5.30;99.90;;;;;;4269175;33;20396;-76
2022/11/20 07:18:00;;;;;;;2.23;1.80;;;5.40;99.90;;;;;;4257141;33;21015;-77
2022/11/20 07:20:29;;;;;;;2.20;2.00;;;5.30;99.90;;;;;;4256496;33;20259;-77
2022/11/20 07:22:56;;;;;;;2.30;2.10;;;5.30;99.90;;;;;;4258121;33;20718;-79
2022/11/20 07:25:23;;;;;;;2.60;2.30;;;5.40;99.90;;;;;;4263460;33;20635;-78
2022/11/20 07:27:50;;;;;;;2.70;2.23;;;5.30;99.90;;;;;;4257341;33;20322;-78
2022/11/20 07:30:17;;;;;;;2.57;2.20;;;5.30;99.90;;;;;;4267575;33;20772;-76
2022/11/20 07:32:47;;;;;;;2.73;2.53;;;5.20;99.90;;;;;;4278045;33;20262;-78
2022/11/20 07:35:14;;;;;;;3.10;2.20;;;5.30;99.90;;;;;;4290168;33;20959;-73
2022/11/20 07:37:42;;;;;;;2.53;2.37;;;5.30;99.90;;;;;;4269521;33;20289;-73
2022/11/20 07:40:10;;;;;;;2.80;2.17;;;5.40;99.90;;;;;;4271606;33;20289;-73
2022/11/20 07:42:38;;;;;;;4.23;3.83;;;5.30;99.90;;;;;;4272134;33;20258;-79
2022/11/20 07:45:06;;;;;;;3.40;2.30;;;5.30;99.90;;;;;;4278707;33;20268;-78
2022/11/20 07:47:36;;;;;;;2.43;2.30;;;5.30;99.90;;;;;;4296351;33;20249;-77
2022/11/20 07:50:03;;;;;;;2.53;2.33;;;5.30;99.90;;;;;;4295987;33;20262;-77
2022/11/20 07:52:30;;;;;;;2.70;2.50;;;5.40;99.90;;;;;;4291700;33;20323;-77
2022/11/20 07:55:02;;;;;;;3.00;2.67;;;5.30;99.90;;;;;;4289998;33;20246;-76
2022/11/20 07:57:29;;;;;;;4.10;2.60;;;5.40;99.90;;;;;;4287130;33;20258;-77
2022/11/20 07:59:56;;;;;;;4.23;3.00;;;5.30;99.90;;;;;;4287168;33;20316;-77
2022/11/20 08:02:23;;;;;;;2.87;2.33;;;5.40;99.90;;;;;;4281768;33;20245;-77
2022/11/20 08:04:50;;;;;;;2.60;2.40;;;5.20;99.90;;;;;;4280247;33;20249;-76
2022/11/20 08:07:17;;;;;;;2.70;2.50;;;5.40;99.90;;;;;;4278135;33;20253;-77
2022/11/20 08:09:48;;;;;;;3.00;2.80;;;5.40;99.90;;;;;;4287330;33;20262;-78
2022/11/20 08:15:07;;;;;;;3.10;2.90;;;5.50;99.90;;;;;;4286621;33;20356;-77
2022/11/20 08:17:33;;;;;;;2.67;2.47;;;5.50;99.90;;;;;;4287404;33;20776;-78
2022/11/20 08:20:00;;;;;;;5.37;2.87;;;5.40;99.90;;;;;;4287255;33;20268;-76
2022/11/20 08:22:29;;;;;;;2.30;2.03;;;5.50;99.90;;;;;;4285837;33;20238;-77
2022/11/20 08:24:57;;;;;;;2.60;2.10;;;5.40;99.90;;;;;;4286838;33;20272;-77
2022/11/20 08:27:25;;;;;;;2.90;2.30;;;5.50;99.90;;;;;;4285995;33;20268;-77
2022/11/20 08:43:11;;;;;;;2.60;2.40;;;5.90;99.90;;;;;;853570;31;21396;-76
2022/11/20 08:45:40;;;;;;;3.43;3.13;;;5.90;99.90;;;;;;4270930;33;20241;-76
2022/11/20 08:48:15;;;;;;;3.00;2.80;;;5.90;99.90;;;;;;4271048;33;20281;-76
2022/11/20 08:50:42;;;;;;;3.93;2.73;;;5.90;99.90;;;;;;4271568;33;20345;-77
2022/11/20 08:53:09;;;;;;;4.20;2.60;;;5.90;99.90;;;;;;4270980;33;20685;-76
2022/11/20 08:55:36;;;;;;;2.63;2.37;;;5.90;99.90;;;;;;4269987;33;20317;-76
2022/11/20 08:58:08;;;;;;;3.20;2.67;;;6.00;99.90;;;;;;4272050;33;20258;-76
2022/11/20 09:00:36;;;;;;;3.87;2.47;;;6.00;99.90;;;;;;4272885;33;20285;-80
2022/11/20 09:03:04;;;;;;;2.73;2.53;;;6.00;99.90;;;;;;4278121;33;20321;-79
2022/11/20 09:05:31;;;;;;;4.90;2.77;;;6.00;99.90;;;;;;4271928;33;20277;-78
2022/11/20 09:08:06;;;;;;;2.90;2.67;;;6.10;99.90;;;;;;4274343;33;20431;-77
2022/11/20 09:10:33;;;;;;;2.57;2.20;;;6.10;99.90;;;;;;4276213;33;20253;-77
2022/11/20 09:13:01;;;;;;;2.63;2.33;;;6.00;99.90;;;;;;4274683;33;20382;-78
2022/11/20 09:15:28;;;;;;;2.70;2.33;;;6.20;99.90;;;;;;4272596;33;20317;-79
2022/11/20 09:18:01;;;;;;;3.13;2.13;;;6.20;99.90;;;;;;4273241;33;20783;-78
2022/11/20 09:20:30;;;;;;;2.07;1.80;;;6.30;99.90;;;;;;4271893;33;20242;-78
2022/11/20 09:22:57;;;;;;;2.50;2.30;;;6.30;99.90;;;;;;4271714;33;20288;-78
2022/11/20 09:25:24;;;;;;;3.40;2.47;;;6.40;99.90;;;;;;4271009;33;20265;-77
2022/11/20 09:27:56;;;;;;;2.00;1.80;;;6.30;99.90;;;;;;4273267;33;20258;-77
2022/11/20 09:30:32;;;;;;;3.37;2.70;;;6.30;99.90;;;;;;4273417;33;20246;-77
2022/11/20 09:33:00;;;;;;;3.40;3.10;;;6.30;99.90;;;;;;4277171;33;20281;-78
2022/11/20 09:35:28;;;;;;;2.93;2.30;;;6.40;99.90;;;;;;4272561;33;20325;-76
2022/11/20 09:37:55;;;;;;;2.17;1.97;;;6.60;99.90;;;;;;4268971;33;20296;-78
2022/11/20 09:40:31;;;;;;;2.70;2.10;;;6.70;99.90;;;;;;4268622;33;20268;-77
2022/11/20 09:43:03;;;;;;;3.63;3.33;;;6.60;99.90;;;;;;4270669;33;20677;-75
2022/11/20 09:45:40;;;;;;;2.50;1.93;;;6.60;99.90;;;;;;4268994;33;20280;-75
2022/11/20 09:48:41;;;;;;;2.70;1.63;;;6.50;99.90;;;;;;4268049;33;20293;-76
2022/11/20 09:51:19;;;;;;;1.80;1.70;;;6.60;99.90;;;;;;4267222;33;20631;-76
2022/11/20 09:54:00;;;;;;;2.13;1.90;;;6.50;99.90;;;;;;4272081;33;20245;-78
2022/11/20 09:56:27;;;;;;;2.03;1.83;;;6.60;99.90;;;;;;4270756;33;20304;-78
2022/11/20 09:58:58;;;;;;;3.27;1.77;;;6.80;99.90;;;;;;4267703;33;20258;-80
2022/11/20 10:01:31;;;;;;;2.33;2.23;;;7.00;99.90;;;;;;4256995;33;20246;-78
2022/11/20 10:04:04;;;;;;;4.20;1.90;;;7.20;99.90;;;;;;4254919;33;20341;-80
2022/11/20 10:06:33;;;;;;;2.93;1.83;;;7.40;99.90;;;;;;4256675;33;20274;-78
2022/11/20 10:09:32;;;;;;;2.00;1.80;;;7.40;99.90;;;;;;4260579;33;20258;-78
2022/11/20 10:12:10;;;;;;;2.40;1.50;;;7.50;99.90;;;;;;4270256;33;20341;-78
2022/11/20 10:14:49;;;;;;;2.30;2.10;;;7.60;99.90;;;;;;4266330;33;20313;-78
2022/11/20 10:17:25;;;;;;;1.97;1.77;;;7.60;99.90;;;;;;4262393;33;20705;-76
2022/11/20 10:20:13;;;;;;;2.20;1.80;;;7.90;99.90;;;;;;4257022;33;20273;-77
2022/11/20 10:22:49;;;;;;;2.20;1.70;;;7.80;99.90;;;;;;4256282;33;20247;-77
2022/11/20 10:25:20;;;;;;;1.60;1.50;;;7.90;99.90;;;;;;4256523;33;20246;-78
2022/11/20 10:28:19;;;;;;;3.40;2.73;;;7.70;99.90;;;;;;4256261;33;20238;-76
2022/11/20 10:30:51;;;;;;;2.33;2.00;;;7.60;99.90;;;;;;4256867;33;20345;-77
2022/11/20 10:33:22;;;;;;;5.20;2.13;;;7.50;99.90;;;;;;4258360;33;20309;-76
2022/11/20 10:35:55;;;;;;;4.10;2.10;;;7.60;99.90;;;;;;4262743;33;20289;-76
2022/11/20 10:38:32;;;;;;;3.20;2.13;;;7.50;99.90;;;;;;4256760;33;20318;-77
2022/11/20 10:43:44;;;;;;;1.67;1.50;;;7.60;99.90;;;;;;4255941;33;20737;-76
2022/11/20 10:46:16;;;;;;;2.17;1.97;;;7.60;99.90;;;;;;4257207;33;20258;-79
2022/11/20 10:48:45;;;;;;;2.00;1.80;;;7.60;99.90;;;;;;4257577;33;20235;-75
2022/11/20 10:51:27;;;;;;;4.73;2.33;;;7.70;99.90;;;;;;4261111;33;20257;-75
2022/11/20 10:54:11;;;;;;;1.93;1.63;;;7.80;99.90;;;;;;4270270;33;20612;-75
2022/11/20 10:56:41;;;;;;;1.57;1.47;;;7.70;99.90;;;;;;4270564;33;20365;-74
2022/11/20 10:59:47;;;;;;;1.40;1.30;;;7.70;99.90;;;;;;4269727;33;20262;-75
2022/11/20 11:05:11;;;;;;;2.17;2.07;;;7.70;99.90;;;;;;4268868;33;20329;-74
2022/11/20 11:07:40;;;;;;;1.73;1.50;;;7.60;99.90;;;;;;4268609;33;20258;-75
2022/11/20 11:10:19;;;;;;;2.67;1.90;;;7.60;99.90;;;;;;4269744;33;20250;-75
2022/11/20 11:12:48;;;;;;;1.90;1.80;;;7.60;99.90;;;;;;4268932;33;20250;-76
2022/11/20 11:15:26;;;;;;;1.70;1.60;;;7.60;99.90;;;;;;4270227;33;20250;-75
2022/11/20 11:17:53;;;;;;;1.67;1.57;;;7.50;99.90;;;;;;4270093;33;20301;-74
2022/11/20 11:20:22;;;;;;;2.53;2.17;;;7.60;99.90;;;;;;4270176;33;20238;-74
2022/11/20 11:22:52;;;;;;;1.67;1.57;;;7.60;99.90;;;;;;4268612;33;20348;-75
2022/11/20 11:25:25;;;;;;;1.50;1.40;;;7.40;99.90;;;;;;4269141;33;20308;-76
2022/11/20 11:27:57;;;;;;;3.10;2.10;;;7.50;99.90;;;;;;4270989;33;20401;-75
2022/11/20 11:30:25;;;;;;;1.80;1.70;;;7.40;99.90;;;;;;4271734;33;20279;-77
2022/11/20 11:33:04;;;;;;;2.57;2.20;;;7.40;99.90;;;;;;4271304;33;20258;-76
2022/11/20 11:35:35;;;;;;;2.03;1.80;;;7.40;99.90;;;;;;4269800;33;20271;-75
2022/11/20 11:38:08;;;;;;;2.37;2.07;;;7.40;99.90;;;;;;4269997;33;20273;-75
2022/11/20 11:40:37;;;;;;;1.20;1.10;;;7.70;99.90;;;;;;4269490;33;20706;-75
2022/11/20 11:45:04;;;;;;;1.97;1.77;;;7.40;99.90;;;;;;4268297;33;20284;-75
2022/11/20 11:45:57;;;;;;;1.53;1.40;;;7.40;99.90;;;;;;4272882;33;20264;-75
2022/11/20 11:48:24;;;;;;;1.77;1.67;;;7.50;99.90;;;;;;4257751;33;20791;-74
2022/11/20 11:50:52;;;;;;;2.40;1.70;;;7.70;99.90;;;;;;4255498;33;20293;-75
2022/11/20 11:53:22;;;;;;;2.07;1.80;;;7.60;99.90;;;;;;4269639;33;20246;-77
2022/11/20 11:55:55;;;;;;;2.97;1.67;;;7.70;99.90;;;;;;4261074;33;20294;-75
2022/11/20 11:58:36;;;;;;;1.77;1.53;;;7.60;99.90;;;;;;4255313;33;20269;-75
2022/11/20 12:01:11;;;;;;;3.90;1.70;;;7.70;99.90;;;;;;4255861;33;20313;-80
2022/11/20 12:03:41;;;;;;;3.30;1.53;;;7.70;99.90;;;;;;4256547;33;20586;-73
2022/11/20 12:06:13;;;;;;;1.70;1.60;;;7.50;99.90;;;;;;4255850;33;20256;-75
2022/11/20 12:08:50;;;;;;;2.00;1.47;;;7.50;99.90;;;;;;4254931;33;20259;-71
2022/11/20 12:11:21;;;;;;;2.60;2.40;;;7.40;99.90;;;;;;4255087;33;20298;-74
2022/11/20 12:13:54;;;;;;;2.10;1.60;;;7.10;99.90;;;;;;4254643;33;20611;-74
2022/11/20 12:16:21;;;;;;;1.67;1.57;;;6.60;99.90;;;;;;4269122;33;20265;-73
2022/11/20 12:18:51;;;;;;;2.50;2.30;;;6.50;99.90;;;;;;4264607;33;20298;-69
2022/11/20 12:21:30;;;;;;;2.43;1.80;;;6.60;99.90;;;;;;4255233;33;20254;-71
2022/11/20 12:24:26;;;;;;;1.53;1.43;;;6.60;99.90;;;;;;4254719;33;20254;-71
2022/11/20 12:27:15;;;;;;;2.77;1.77;;;6.70;99.90;;;;;;4255972;33;20254;-69
2022/11/20 12:30:08;;;;;;;1.70;1.57;;;6.70;99.90;;;;;;4262918;33;20243;-77
2022/11/20 12:32:56;;;;;;;2.23;1.83;;;6.60;99.90;;;;;;4266165;33;20258;-77
2022/11/20 12:35:44;;;;;;;1.80;1.70;;;6.50;99.90;;;;;;4270488;33;20700;-77
2022/11/20 12:38:36;;;;;;;2.10;1.90;;;6.40;99.90;;;;;;4283379;33;20285;-78
2022/11/20 12:41:12;;;;;;;2.20;2.00;;;6.50;99.90;;;;;;4277345;33;20238;-77
2022/11/20 12:46:40;;;;;;;2.33;1.50;;;6.40;99.90;;;;;;4261762;33;20305;-77
2022/11/20 12:49:27;;;;;;;1.83;1.70;;;6.50;99.90;;;;;;4261544;33;20261;-77
2022/11/20 12:52:21;;;;;;;1.90;1.70;;;6.40;99.90;;;;;;4270633;33;20250;-77
2022/11/20 12:55:16;;;;;;;3.57;1.43;;;6.40;99.90;;;;;;4270844;33;20281;-77
2022/11/20 12:57:51;;;;;;;1.90;1.80;;;6.40;99.90;;;;;;4271350;33;20665;-77
2022/11/20 13:00:21;;;;;;;2.23;2.00;;;6.40;99.90;;;;;;4270598;33;20257;-78
2022/11/20 13:03:19;;;;;;;2.00;1.90;;;6.40;99.90;;;;;;4266845;33;20262;-77
2022/11/20 13:05:58;;;;;;;1.70;1.60;;;6.30;99.90;;;;;;4269777;33;20250;-77
2022/11/20 13:08:27;;;;;;;2.40;1.90;;;6.30;99.90;;;;;;4269829;33;20260;-77
2022/11/20 13:11:02;;;;;;;2.13;1.90;;;6.30;99.90;;;;;;4275601;33;20273;-78
2022/11/20 13:13:40;;;;;;;1.90;1.60;;;6.40;99.90;;;;;;4271789;33;20316;-78
2022/11/20 13:16:14;;;;;;;2.33;2.10;;;6.40;99.90;;;;;;4274672;33;20305;-77
2022/11/20 13:18:44;;;;;;;2.53;1.70;;;6.50;99.90;;;;;;4262277;33;20265;-77
2022/11/20 13:21:17;;;;;;;2.07;1.87;;;6.30;99.90;;;;;;4258361;33;20337;-78
2022/11/20 13:23:44;;;;;;;2.60;2.07;;;6.10;99.90;;;;;;4255282;33;20266;-77
2022/11/20 13:26:20;;;;;;;2.70;2.40;;;6.00;99.90;;;;;;4269640;33;20749;-77
2022/11/20 13:29:02;;;;;;;2.60;2.17;;;6.00;99.90;;;;;;4269800;33;20237;-77
2022/11/20 13:31:32;;;;;;;2.10;1.60;;;6.10;99.90;;;;;;4268596;33;20664;-77
2022/11/20 13:34:01;;;;;;;2.40;1.80;;;6.00;99.90;;;;;;4263094;33;20497;-77
2022/11/20 13:51:27;;;;;;;2.00;1.60;;;6.10;99.90;;;;;;6308915;22;1534023;-76
2022/11/20 13:54:38;;;;;;;1.90;1.80;;;6.20;99.90;;;;;;6383186;22;20189;-78
2022/11/20 13:57:21;;;;;;;1.90;1.80;;;6.20;99.90;;;;;;6378801;22;20525;-77
2022/11/20 13:59:57;;;;;;;4.10;2.93;;;6.20;99.90;;;;;;6371180;22;20390;-77
2022/11/20 14:02:28;;;;;;;3.27;2.17;;;6.20;99.90;;;;;;6370913;22;20401;-76
2022/11/20 14:04:59;;;;;;;2.37;2.17;;;6.20;99.90;;;;;;6372325;22;20778;-77
2022/11/20 14:07:46;;;;;;;3.40;2.40;;;6.20;99.90;;;;;;6375981;22;20952;-77
2022/11/20 14:10:21;;;;;;;2.70;2.50;;;6.20;99.90;;;;;;6379057;22;20428;-77
2022/11/20 14:12:48;;;;;;;5.53;2.33;;;6.20;99.90;;;;;;6376569;22;20790;-78
2022/11/20 14:15:26;;;;;;;3.37;2.73;;;6.30;99.90;;;;;;6372469;22;20406;-77
2022/11/20 14:17:53;;;;;;;2.47;2.27;;;6.40;99.90;;;;;;6376246;22;20560;-77
2022/11/20 14:20:23;;;;;;;2.00;1.80;;;6.40;99.90;;;;;;6372696;22;20491;-77
2022/11/20 14:22:51;;;;;;;2.43;2.23;;;6.40;99.90;;;;;;6371135;22;20401;-77
2022/11/20 14:25:26;;;;;;;1.70;1.60;;;6.50;99.90;;;;;;6370313;22;20692;-78
2022/11/20 14:27:55;;;;;;;3.43;2.43;;;6.40;99.90;;;;;;6370336;22;20884;-77
2022/11/20 14:30:24;;;;;;;1.73;1.63;;;6.40;99.90;;;;;;6370364;22;20441;-77
2022/11/20 14:48:38;;;;;;;1.63;1.53;;;6.40;99.90;;;;;;6318565;22;20433;-75
2022/11/20 14:51:30;;;;;;;2.20;2.00;;;6.40;99.90;;;;;;6360567;22;20402;-72
2022/11/20 16:17:42;;;;;;;4.10;2.37;;;5.40;99.90;;;;;;6323172;22;20943;-77
2022/11/20 16:20:12;;;;;;;3.87;2.83;;;5.40;99.90;;;;;;6330333;22;20913;-75
2022/11/20 16:22:40;;;;;;;2.90;2.40;;;5.50;99.90;;;;;;6330134;22;20399;-79
2022/11/20 16:25:23;;;;;;;2.50;1.90;;;5.60;99.90;;;;;;6354390;22;20427;-78
2022/11/20 16:41:02;;;;;;;3.40;3.10;;;5.20;99.90;;;;;;6355900;22;20504;-86
2022/11/20 16:43:29;;;;;;;3.40;2.70;;;5.10;99.90;;;;;;6360785;22;20434;-86
2022/11/20 16:46:05;;;;;;;2.80;2.60;;;5.20;99.90;;;;;;6361311;22;20456;-85
2022/11/20 16:48:32;;;;;;;3.43;3.10;;;5.30;99.90;;;;;;6360406;22;20394;-85
2022/11/20 16:50:59;;;;;;;3.10;2.80;;;5.30;99.90;;;;;;6360612;22;20407;-86
2022/11/20 16:53:26;;;;;;;5.00;2.93;;;5.20;99.90;;;;;;6359085;22;20414;-85
2022/11/20 16:55:53;;;;;;;5.27;3.03;;;5.00;99.90;;;;;;6361693;22;20464;-78
2022/11/20 16:58:21;;;;;;;4.67;3.40;;;4.90;99.90;;;;;;6359950;22;20438;-78
2022/11/20 17:00:48;;;;;;;3.77;3.10;;;4.80;99.90;;;;;;6360532;22;20411;-78
2022/11/20 17:03:16;;;;;;;3.23;3.00;;;4.80;99.90;;;;;;6359323;22;20938;-78
2022/11/20 17:05:43;;;;;;;3.90;2.57;;;4.80;99.90;;;;;;6360905;22;20469;-78
2022/11/20 17:08:10;;;;;;;4.23;3.43;;;4.80;99.90;;;;;;6360354;22;20410;-78
2022/11/20 17:10:37;;;;;;;3.57;3.00;;;4.70;99.90;;;;;;6357778;22;20443;-80
2022/11/20 17:13:04;;;;;;;5.03;4.27;;;4.70;99.90;;;;;;6361788;22;20411;-78
2022/11/20 17:15:33;;;;;;;4.90;3.63;;;4.70;99.90;;;;;;6361562;22;20467;-78
2022/11/20 17:18:02;;;;;;;4.53;3.47;;;4.70;99.90;;;;;;6360460;22;20450;-78
2022/11/20 17:20:29;;;;;;;3.67;3.30;;;4.70;99.90;;;;;;6360864;22;20446;-78
2022/11/20 17:22:56;;;;;;;5.20;3.97;;;4.80;99.90;;;;;;6360159;22;20422;-77
2022/11/20 17:25:24;;;;;;;4.50;3.53;;;4.90;99.90;;;;;;6361155;22;20410;-77
2022/11/20 17:27:51;;;;;;;3.77;3.30;;;5.00;99.90;;;;;;6360542;22;20922;-78
2022/11/20 17:30:21;;;;;;;4.50;3.97;;;4.80;99.90;;;;;;6360204;22;20433;-80
2022/11/20 17:32:51;;;;;;;7.50;3.93;;;4.80;99.90;;;;;;6359613;22;20762;-77
2022/11/20 17:35:18;;;;;;;5.07;3.57;;;4.90;99.90;;;;;;6359439;22;20760;-77
2022/11/20 17:37:47;;;;;;;4.33;3.30;;;4.80;99.90;;;;;;6358403;22;20445;-79
2022/11/20 17:40:41;;;;;;;4.50;2.90;;;4.60;99.90;;;;;;6366721;22;20459;-77
